createdAt,value
2019-03-16T00:00:01.604Z,52.33
2019-03-16T00:01:01.561Z,51.57
2019-03-16T00:02:01.560Z,50.99
2019-03-16T00:03:01.529Z,50.24
2019-03-16T00:04:01.531Z,49.67
2019-03-16T00:05:01.498Z,49.76
2019-03-16T00:06:01.546Z,50.62
2019-03-16T00:07:01.575Z,50.34
2019-03-16T00:08:01.465Z,51.57
2019-03-16T00:09:01.444Z,54.22
2019-03-16T00:10:01.451Z,54.13
2019-03-16T00:11:01.450Z,54.22
2019-03-16T00:12:01.769Z,53.94
2019-03-16T00:13:01.436Z,52.98
2019-03-16T00:14:01.116Z,56.87
2019-03-16T00:15:01.351Z,59.91
2019-03-16T00:16:01.332Z,61.9
2019-03-16T00:17:01.318Z,63.89
2019-03-16T00:18:01.295Z,66.54
2019-03-16T00:19:01.282Z,67.87
2019-03-16T00:20:01.279Z,67.49
2019-03-16T00:21:01.251Z,68.82
2019-03-16T00:22:01.235Z,69.77
2019-03-16T00:23:01.326Z,75.64
2019-03-16T00:24:01.201Z,79.06
2019-03-16T00:25:01.294Z,78.58
2019-03-16T00:26:01.178Z,77.54
2019-03-16T00:27:01.160Z,76.5
2019-03-16T00:28:00.903Z,77.16
2019-03-16T00:29:01.121Z,77.73
2019-03-16T00:30:00.863Z,77.45
2019-03-16T00:31:01.093Z,78.77
2019-03-16T00:32:12.756Z,77.16
2019-03-16T00:33:01.063Z,76.5
2019-03-16T00:34:01.047Z,75.93
2019-03-16T00:35:01.033Z,75.07
2019-03-16T00:36:01.017Z,74.13
2019-03-16T00:37:00.999Z,74.22
2019-03-16T00:38:01.051Z,74.03
2019-03-16T00:39:00.981Z,72.8
2019-03-16T00:40:00.951Z,71.09
2019-03-16T00:41:00.933Z,69.48
2019-03-16T00:42:00.983Z,68.91
2019-03-16T00:43:00.907Z,68.25
2019-03-16T00:44:00.891Z,66.93
2019-03-16T00:45:00.875Z,65.88
2019-03-16T00:46:00.860Z,65.41
2019-03-16T00:47:00.847Z,65.59
2019-03-16T00:48:00.828Z,67.4
2019-03-16T00:49:00.813Z,68.91
2019-03-16T00:50:00.797Z,70.53
2019-03-16T00:51:00.548Z,69.96
2019-03-16T00:52:00.791Z,69.77
2019-03-16T00:53:00.749Z,72.23
2019-03-16T00:54:00.734Z,71.47
2019-03-16T00:55:00.722Z,71.57
2019-03-16T00:56:00.711Z,72.23
2019-03-16T00:57:00.689Z,74.13
2019-03-16T00:58:00.427Z,74.98
2019-03-16T00:59:00.658Z,75.93
2019-03-16T01:00:00.642Z,75.36
2019-03-16T01:01:00.628Z,75.07
2019-03-16T01:02:00.607Z,74.32
2019-03-16T01:03:00.345Z,75.17
2019-03-16T01:04:00.578Z,76.21
2019-03-16T01:05:00.562Z,76.5
2019-03-16T01:06:00.549Z,81.14
2019-03-16T01:07:00.547Z,83.61
2019-03-16T01:08:00.516Z,81.81
2019-03-16T01:09:00.507Z,82.75
2019-03-16T01:10:00.482Z,83.89
2019-03-16T01:11:00.481Z,82.66
2019-03-16T01:12:00.456Z,82.66
2019-03-16T01:13:00.458Z,81.9
2019-03-16T01:14:00.435Z,80.67
2019-03-16T01:15:00.459Z,79.91
2019-03-16T01:16:00.141Z,78.96
2019-03-16T01:17:00.382Z,77.83
2019-03-16T01:18:00.358Z,77.83
2019-03-16T01:19:00.342Z,76.97
2019-03-16T01:20:00.417Z,76.59
2019-03-16T01:21:00.310Z,75.64
2019-03-16T01:22:00.327Z,75.07
2019-03-16T01:23:00.279Z,77.16
2019-03-16T01:24:00.274Z,78.77
2019-03-16T01:25:00.393Z,79.63
2019-03-16T01:26:00.233Z,79.53
2019-03-16T01:26:59.969Z,81.33
2019-03-16T01:28:00.203Z,84.36
2019-03-16T01:29:00.190Z,88.35
2019-03-16T01:30:00.340Z,88.73
2019-03-16T01:31:00.161Z,87.59
2019-03-16T01:32:00.141Z,91.09
2019-03-16T01:33:00.126Z,92.42
2019-03-16T01:34:00.107Z,93.27
2019-03-16T01:35:00.097Z,91.38
2019-03-16T01:36:00.078Z,90.24
2019-03-16T01:37:00.064Z,88.92
2019-03-16T01:38:00.054Z,88.73
2019-03-16T01:39:00.036Z,89.29
2019-03-16T01:40:00.013Z,90.72
2019-03-16T01:40:59.999Z,91.76
2019-03-16T01:41:59.984Z,93.84
2019-03-16T01:42:59.966Z,95.74
2019-03-16T01:43:59.960Z,96.31
2019-03-16T01:44:59.935Z,97.16
2019-03-16T01:45:59.932Z,96.03
2019-03-16T01:46:59.911Z,94.89
2019-03-16T01:47:59.895Z,96.22
2019-03-16T01:48:59.873Z,97.16
2019-03-16T01:49:59.612Z,95.55
2019-03-16T01:50:59.843Z,94.51
2019-03-16T01:51:59.829Z,95.17
2019-03-16T01:52:59.808Z,94.79
2019-03-16T01:53:59.812Z,97.54
2019-03-16T01:54:59.778Z,98.58
2019-03-16T01:55:59.760Z,98.96
2019-03-16T01:56:59.749Z,98.77
2019-03-16T01:57:59.729Z,98.3
2019-03-16T01:58:59.715Z,97.35
2019-03-16T01:59:59.697Z,99.91
2019-03-16T02:00:59.689Z,98.87
2019-03-16T02:01:59.670Z,98.58
2019-03-16T02:02:59.651Z,99.99
2019-03-16T02:03:59.636Z,99.99
2019-03-16T02:04:59.625Z,99.99
2019-03-16T02:05:59.657Z,97.64
2019-03-16T02:06:59.344Z,95.65
2019-03-16T02:07:59.587Z,99.63
2019-03-16T02:08:59.561Z,99.82
2019-03-16T02:09:59.297Z,98.87
2019-03-16T02:10:59.525Z,97.54
2019-03-16T02:12:02.898Z,96.22
2019-03-16T02:12:59.251Z,94.23
2019-03-16T02:13:59.479Z,93.18
2019-03-16T02:14:59.467Z,91.47
2019-03-16T02:16:12.640Z,89.96
2019-03-16T02:16:59.433Z,91
2019-03-16T02:17:59.423Z,90.05
2019-03-16T02:18:59.404Z,89.58
2019-03-16T02:19:59.392Z,88.16
2019-03-16T02:20:59.383Z,90.15
2019-03-16T02:21:59.358Z,92.9
2019-03-16T02:22:59.338Z,94.13
2019-03-16T02:23:59.326Z,94.7
2019-03-16T02:24:59.308Z,93.65
2019-03-16T02:25:59.291Z,92.33
2019-03-16T02:26:59.279Z,90.53
2019-03-16T02:27:59.260Z,90.05
2019-03-16T02:28:59.245Z,90.24
2019-03-16T02:29:59.229Z,89.39
2019-03-16T02:30:58.979Z,90.05
2019-03-16T02:31:59.224Z,89.86
2019-03-16T02:33:14.696Z,88.63
2019-03-16T02:33:59.170Z,88.82
2019-03-16T02:34:59.171Z,90.05
2019-03-16T02:35:59.137Z,95.93
2019-03-16T02:36:59.126Z,95.74
2019-03-16T02:37:59.117Z,94.79
2019-03-16T02:38:59.103Z,93.56
2019-03-16T02:39:59.082Z,93.46
2019-03-16T02:40:59.074Z,93.08
2019-03-16T02:41:59.049Z,91.57
2019-03-16T02:42:59.032Z,92.33
2019-03-16T02:43:59.021Z,92.8
2019-03-16T02:44:59.052Z,91.47
2019-03-16T02:45:58.737Z,91.19
2019-03-16T02:46:58.976Z,91.66
2019-03-16T02:47:58.957Z,91.09
2019-03-16T02:48:58.936Z,90.24
2019-03-16T02:49:58.925Z,90.05
2019-03-16T02:50:58.930Z,89.01
2019-03-16T02:51:58.891Z,87.59
2019-03-16T02:52:58.889Z,90.62
2019-03-16T02:53:58.862Z,96.97
2019-03-16T02:54:58.857Z,98.02
2019-03-16T02:55:58.823Z,95.74
2019-03-16T02:56:58.813Z,93.27
2019-03-16T02:57:58.806Z,95.65
2019-03-16T02:58:58.783Z,95.17
2019-03-16T02:59:58.770Z,93.27
2019-03-16T03:00:58.850Z,91.95
2019-03-16T03:01:58.731Z,91.95
2019-03-16T03:02:58.720Z,93.46
2019-03-16T03:03:58.701Z,93.08
2019-03-16T03:04:58.686Z,91.76
2019-03-16T03:05:58.674Z,89.77
2019-03-16T03:06:58.661Z,89.58
2019-03-16T03:07:58.648Z,88.63
2019-03-16T03:08:58.619Z,87.21
2019-03-16T03:09:58.607Z,86.45
2019-03-16T03:10:58.638Z,85.13
2019-03-16T03:11:58.581Z,83.7
2019-03-16T03:12:58.563Z,82.47
2019-03-16T03:13:58.542Z,81.81
2019-03-16T03:14:58.526Z,81.14
2019-03-16T03:15:58.539Z,80.38
2019-03-16T03:16:58.509Z,79.25
2019-03-16T03:17:58.492Z,77.97
2019-03-16T03:18:58.469Z,77.59
2019-03-16T03:19:58.493Z,78.35
2019-03-16T03:20:58.182Z,78.45
2019-03-16T03:21:58.414Z,78.16
2019-03-16T03:22:58.403Z,77.59
2019-03-16T03:23:58.395Z,77.59
2019-03-16T03:24:58.363Z,77.88
2019-03-16T03:25:58.361Z,78.73
2019-03-16T03:26:58.341Z,76.93
2019-03-16T03:27:58.315Z,76.55
2019-03-16T03:28:58.308Z,76.46
2019-03-16T03:29:59.977Z,76.36
2019-03-16T03:30:58.359Z,76.27
2019-03-16T03:31:58.267Z,75.89
2019-03-16T03:32:58.281Z,76.46
2019-03-16T03:34:04.625Z,77.59
2019-03-16T03:34:58.215Z,77.78
2019-03-16T03:35:58.189Z,77.12
2019-03-16T03:36:58.175Z,75.6
2019-03-16T03:37:58.159Z,74.95
2019-03-16T03:38:58.139Z,75.23
2019-03-16T03:39:58.124Z,74.95
2019-03-16T03:41:01.539Z,74.37
2019-03-16T03:41:58.097Z,73.71
2019-03-16T03:42:58.094Z,73.33
2019-03-16T03:43:58.072Z,72.77
2019-03-16T03:44:58.046Z,74.56
2019-03-16T03:45:57.788Z,76.17
2019-03-16T03:46:58.017Z,76.36
2019-03-16T03:47:58.022Z,75.79
2019-03-16T03:48:57.982Z,75.7
2019-03-16T03:49:57.962Z,75.51
2019-03-16T03:50:57.948Z,75.23
2019-03-16T03:51:57.685Z,76.27
2019-03-16T03:52:57.935Z,75.79
2019-03-16T03:53:57.901Z,75.13
2019-03-16T03:54:57.643Z,74.47
2019-03-16T03:55:57.871Z,73.61
2019-03-16T03:56:57.856Z,72.86
2019-03-16T03:57:57.850Z,71.72
2019-03-16T03:58:57.823Z,71.15
2019-03-16T03:59:57.558Z,70.3
2019-03-16T04:00:57.784Z,68.98
2019-03-16T04:01:57.773Z,68.12
2019-03-16T04:02:57.762Z,66.99
2019-03-16T04:04:14.698Z,65.47
2019-03-16T04:04:57.724Z,64.71
2019-03-16T04:05:57.707Z,64.23
2019-03-16T04:06:57.698Z,63.29
2019-03-16T04:07:57.681Z,62.34
2019-03-16T04:08:57.682Z,62.43
2019-03-16T04:09:57.650Z,63.39
2019-03-16T04:10:57.636Z,63.67
2019-03-16T04:11:57.384Z,63.76
2019-03-16T04:12:57.609Z,63.2
2019-03-16T04:13:57.585Z,62.62
2019-03-16T04:14:57.570Z,61.96
2019-03-16T04:15:57.547Z,61.3
2019-03-16T04:16:57.573Z,61.77
2019-03-16T04:17:57.516Z,62.24
2019-03-16T04:18:57.500Z,62.82
2019-03-16T04:19:57.490Z,62.53
2019-03-16T04:20:57.468Z,62.15
2019-03-16T04:21:57.459Z,61.77
2019-03-16T04:22:57.438Z,61.02
2019-03-16T04:23:57.418Z,60.54
2019-03-16T04:24:57.411Z,59.88
2019-03-16T04:25:57.436Z,59.59
2019-03-16T04:26:57.391Z,59.41
2019-03-16T04:27:57.360Z,59.59
2019-03-16T04:28:57.095Z,58.65
2019-03-16T04:29:57.323Z,58.65
2019-03-16T04:30:57.307Z,58.17
2019-03-16T04:31:57.293Z,58.26
2019-03-16T04:32:57.274Z,60.73
2019-03-16T04:33:57.259Z,61.77
2019-03-16T04:34:57.243Z,62.15
2019-03-16T04:35:56.986Z,61.58
2019-03-16T04:36:57.209Z,64.42
2019-03-16T04:37:57.196Z,64.52
2019-03-16T04:38:57.179Z,63.95
2019-03-16T04:39:57.172Z,63.57
2019-03-16T04:40:57.146Z,62.62
2019-03-16T04:41:57.130Z,62.05
2019-03-16T04:42:57.117Z,61.11
2019-03-16T04:43:56.860Z,60.83
2019-03-16T04:44:57.086Z,60.73
2019-03-16T04:45:56.819Z,60.73
2019-03-16T04:46:57.050Z,60.83
2019-03-16T04:47:57.036Z,61.49
2019-03-16T04:48:56.772Z,61.87
2019-03-16T04:49:57.004Z,65.37
2019-03-16T04:50:56.988Z,67.27
2019-03-16T04:51:56.970Z,68.79
2019-03-16T04:52:56.958Z,72.38
2019-03-16T04:53:56.940Z,73.99
2019-03-16T04:54:56.925Z,79.21
2019-03-16T04:55:56.912Z,80.72
2019-03-16T04:56:56.895Z,80.82
2019-03-16T04:57:56.877Z,80.44
2019-03-16T04:58:56.859Z,79.49
2019-03-16T04:59:56.841Z,77.88
2019-03-16T05:00:56.830Z,77.03
2019-03-16T05:01:56.817Z,75.7
2019-03-16T05:02:56.793Z,75.79
2019-03-16T05:03:56.788Z,75.98
2019-03-16T05:04:56.762Z,78.07
2019-03-16T05:05:56.499Z,81.01
2019-03-16T05:06:56.728Z,82.81
2019-03-16T05:07:56.718Z,82.33
2019-03-16T05:08:56.698Z,80.72
2019-03-16T05:09:56.682Z,79.77
2019-03-16T05:10:56.667Z,79.77
2019-03-16T05:11:56.657Z,78.64
2019-03-16T05:12:56.630Z,78.16
2019-03-16T05:13:56.616Z,76.55
2019-03-16T05:14:56.605Z,75.32
2019-03-16T05:15:56.593Z,75.13
2019-03-16T05:16:56.568Z,74.66
2019-03-16T05:17:56.558Z,73.99
2019-03-16T05:18:56.535Z,72.86
2019-03-16T05:19:56.520Z,71.62
2019-03-16T05:20:56.257Z,73.24
2019-03-16T05:21:56.241Z,74.18
2019-03-16T05:22:56.469Z,76.55
2019-03-16T05:23:56.452Z,76.27
2019-03-16T05:24:56.439Z,75.32
2019-03-16T05:25:56.173Z,74.09
2019-03-16T05:26:56.158Z,72
2019-03-16T05:27:56.388Z,71.91
2019-03-16T05:28:56.387Z,73.33
2019-03-16T05:29:56.356Z,75.42
2019-03-16T05:30:56.338Z,75.98
2019-03-16T05:31:56.323Z,76.55
2019-03-16T05:32:56.308Z,78.54
2019-03-16T05:33:56.294Z,78.07
2019-03-16T05:34:59.138Z,77.69
2019-03-16T05:35:56.009Z,76.93
2019-03-16T05:36:58.540Z,74.66
2019-03-16T05:37:56.227Z,73.71
2019-03-16T05:38:56.208Z,75.89
2019-03-16T05:39:56.193Z,76.08
2019-03-16T05:40:56.275Z,77.69
2019-03-16T05:41:56.161Z,77.03
2019-03-16T05:42:56.139Z,76.65
2019-03-16T05:43:56.126Z,76.74
2019-03-16T05:44:56.107Z,76.55
2019-03-16T05:45:56.094Z,75.51
2019-03-16T05:46:56.077Z,74.95
2019-03-16T05:47:56.059Z,75.51
2019-03-16T05:48:56.042Z,76.27
2019-03-16T05:49:56.028Z,75.23
2019-03-16T05:50:57.426Z,74.56
2019-03-16T05:51:55.992Z,72.77
2019-03-16T05:52:55.978Z,70.97
2019-03-16T05:53:55.960Z,69.26
2019-03-16T05:54:55.942Z,67.83
2019-03-16T05:55:55.932Z,66.8
2019-03-16T05:56:55.910Z,66.13
2019-03-16T05:57:55.648Z,65
2019-03-16T05:58:55.878Z,64.14
2019-03-16T05:59:55.863Z,63.39
2019-03-16T06:00:55.842Z,62.05
2019-03-16T06:01:55.849Z,61.21
2019-03-16T06:02:55.812Z,59.59
2019-03-16T06:03:55.821Z,58.45
2019-03-16T06:05:09.384Z,57.23
2019-03-16T06:05:55.767Z,55.9
2019-03-16T06:06:55.749Z,54.95
2019-03-16T06:07:55.728Z,54.1
2019-03-16T06:08:55.714Z,52.87
2019-03-16T06:09:55.697Z,51.64
2019-03-16T06:10:55.681Z,50.88
2019-03-16T06:11:55.664Z,50.21
2019-03-16T06:12:55.652Z,49.74
2019-03-16T06:13:55.630Z,50.02
2019-03-16T06:14:55.616Z,50.12
2019-03-16T06:15:55.599Z,50.69
2019-03-16T06:16:55.580Z,50.78
2019-03-16T06:17:55.567Z,52.39
2019-03-16T06:18:55.551Z,52.11
2019-03-16T06:19:55.534Z,52.39
2019-03-16T06:20:55.518Z,52.87
2019-03-16T06:21:55.255Z,53.81
2019-03-16T06:22:55.233Z,54.95
2019-03-16T06:23:55.468Z,54.95
2019-03-16T06:24:55.452Z,54.76
2019-03-16T06:25:55.434Z,54.1
2019-03-16T06:26:55.418Z,53.34
2019-03-16T06:27:55.157Z,53.15
2019-03-16T06:28:55.383Z,51.82
2019-03-16T06:29:55.370Z,51.16
2019-03-16T06:30:55.353Z,50.97
2019-03-16T06:31:55.336Z,50.4
2019-03-16T06:32:55.074Z,50.49
2019-03-16T06:33:55.312Z,49.27
2019-03-16T06:34:55.290Z,48.89
2019-03-16T06:35:55.271Z,48.6
2019-03-16T06:36:55.252Z,48.03
2019-03-16T06:37:55.238Z,48.7
2019-03-16T06:38:54.973Z,50.21
2019-03-16T06:39:55.204Z,50.69
2019-03-16T06:40:55.193Z,50.88
2019-03-16T06:41:54.931Z,50.12
2019-03-16T06:42:55.159Z,50.02
2019-03-16T06:43:55.213Z,49.84
2019-03-16T06:44:55.124Z,48.89
2019-03-16T06:45:55.211Z,48.22
2019-03-16T06:46:55.096Z,48.7
2019-03-16T06:47:57.004Z,49.27
2019-03-16T06:48:55.059Z,49.84
2019-03-16T06:49:55.050Z,49.93
2019-03-16T06:50:54.833Z,50.21
2019-03-16T06:51:55.018Z,51.82
2019-03-16T06:52:54.749Z,52.77
2019-03-16T06:53:54.734Z,54
2019-03-16T06:54:54.962Z,54.57
2019-03-16T06:55:54.944Z,54.95
2019-03-16T06:56:54.931Z,55.14
2019-03-16T06:57:54.911Z,54.86
2019-03-16T06:58:58.131Z,54.47
2019-03-16T06:59:54.884Z,54.95
2019-03-16T07:00:54.865Z,55.05
2019-03-16T07:01:54.847Z,54.86
2019-03-16T07:02:54.839Z,55.52
2019-03-16T07:03:54.819Z,55.8
2019-03-16T07:04:54.801Z,55.71
2019-03-16T07:05:54.784Z,55.62
2019-03-16T07:06:54.520Z,54.57
2019-03-16T07:07:54.759Z,55.9
2019-03-16T07:08:54.742Z,55.99
2019-03-16T07:09:54.724Z,57.6
2019-03-16T07:10:54.709Z,58.17
2019-03-16T07:11:54.688Z,58.07
2019-03-16T07:12:54.425Z,58.26
2019-03-16T07:13:54.656Z,58.26
2019-03-16T07:14:54.643Z,57.32
2019-03-16T07:15:54.629Z,56.27
2019-03-16T07:17:04.368Z,55.43
2019-03-16T07:17:54.596Z,55.99
2019-03-16T07:19:01.343Z,55.43
2019-03-16T07:19:54.560Z,54.76
2019-03-16T07:20:54.561Z,55.8
2019-03-16T07:21:54.529Z,56.85
2019-03-16T07:22:54.265Z,57.42
2019-03-16T07:23:54.514Z,57.23
2019-03-16T07:24:54.231Z,58.84
2019-03-16T07:25:54.469Z,58.93
2019-03-16T07:26:54.445Z,58.74
2019-03-16T07:27:54.433Z,58.26
2019-03-16T07:28:54.167Z,59.12
2019-03-16T07:29:54.398Z,60.44
2019-03-16T07:30:54.384Z,60.64
2019-03-16T07:31:54.367Z,59.78
2019-03-16T07:32:54.351Z,58.65
2019-03-16T07:33:54.089Z,58.07
2019-03-16T07:34:54.322Z,57.51
2019-03-16T07:35:54.304Z,57.32
2019-03-16T07:36:54.291Z,57.51
2019-03-16T07:37:54.271Z,57.04
2019-03-16T07:38:54.259Z,56.85
2019-03-16T07:39:54.238Z,56.18
2019-03-16T07:40:54.222Z,55.83
2019-03-16T07:41:54.213Z,55.26
2019-03-16T07:42:54.192Z,55.55
2019-03-16T07:43:54.176Z,55.93
2019-03-16T07:45:07.245Z,56.59
2019-03-16T07:45:54.150Z,57.73
2019-03-16T07:46:54.129Z,58.48
2019-03-16T07:47:54.114Z,59.34
2019-03-16T07:48:54.098Z,59.63
2019-03-16T07:49:54.082Z,60
2019-03-16T07:50:54.072Z,59.72
2019-03-16T07:51:54.075Z,60
2019-03-16T07:52:54.039Z,59.34
2019-03-16T07:53:53.771Z,59.63
2019-03-16T07:54:54.010Z,58.11
2019-03-16T07:55:53.988Z,58.01
2019-03-16T07:56:53.979Z,57.54
2019-03-16T07:57:53.712Z,57.54
2019-03-16T07:58:53.941Z,58.11
2019-03-16T07:59:53.936Z,58.67
2019-03-16T08:00:53.913Z,60
2019-03-16T08:01:53.897Z,61.05
2019-03-16T08:02:53.880Z,60.67
2019-03-16T08:03:53.625Z,60
2019-03-16T08:04:53.605Z,59.53
2019-03-16T08:05:53.833Z,60.19
2019-03-16T08:06:53.819Z,60.1
2019-03-16T08:07:53.801Z,62.18
2019-03-16T08:08:53.794Z,62.37
2019-03-16T08:09:53.531Z,62.66
2019-03-16T08:10:53.758Z,62.18
2019-03-16T08:11:53.780Z,61.9
2019-03-16T08:12:53.479Z,61.05
2019-03-16T08:13:53.749Z,60.67
2019-03-16T08:14:53.698Z,60.57
2019-03-16T08:15:53.681Z,65.59
2019-03-16T08:16:53.665Z,67.3
2019-03-16T08:17:53.650Z,69.01
2019-03-16T08:18:53.638Z,68.91
2019-03-16T08:19:53.617Z,68.44
2019-03-16T08:20:53.604Z,68.35
2019-03-16T08:21:53.589Z,68.63
2019-03-16T08:22:53.572Z,67.68
2019-03-16T08:23:56.225Z,67.77
2019-03-16T08:24:53.548Z,67.49
2019-03-16T08:25:53.529Z,69.1
2019-03-16T08:26:53.521Z,68.73
2019-03-16T08:27:56.953Z,68.35
2019-03-16T08:28:53.485Z,68.54
2019-03-16T08:29:53.227Z,67.4
2019-03-16T08:30:53.205Z,68.82
2019-03-16T08:31:53.437Z,68.25
2019-03-16T08:32:53.175Z,67.77
2019-03-16T08:33:53.409Z,67.4
2019-03-16T08:34:53.389Z,71.95
2019-03-16T08:35:53.375Z,72.33
2019-03-16T08:36:53.364Z,72.04
2019-03-16T08:37:53.098Z,72.99
2019-03-16T08:38:53.330Z,72.89
2019-03-16T08:39:53.316Z,72.42
2019-03-16T08:40:53.297Z,71.28
2019-03-16T08:41:53.035Z,73.27
2019-03-16T08:42:54.004Z,73.84
2019-03-16T08:43:53.253Z,74.6
2019-03-16T08:44:53.237Z,74.79
2019-03-16T08:45:53.225Z,74.79
2019-03-16T08:46:53.204Z,73.94
2019-03-16T08:47:52.944Z,72.42
2019-03-16T08:48:53.177Z,70.9
2019-03-16T08:49:52.916Z,69.96
2019-03-16T08:50:53.145Z,72.08
2019-03-16T08:51:53.130Z,73.75
2019-03-16T08:52:56.208Z,73.97
2019-03-16T08:53:53.101Z,75.78
2019-03-16T08:54:53.086Z,78.2
2019-03-16T08:55:53.068Z,79.82
2019-03-16T08:56:52.815Z,79.06
2019-03-16T08:58:05.269Z,75.84
2019-03-16T08:58:53.023Z,74.03
2019-03-16T08:59:53.014Z,72.89
2019-03-16T09:00:52.995Z,72.33
2019-03-16T09:01:52.982Z,70.81
2019-03-16T09:02:52.963Z,68.91
2019-03-16T09:03:52.947Z,70.15
2019-03-16T09:04:52.691Z,69.77
2019-03-16T09:05:52.671Z,68.73
2019-03-16T09:06:55.411Z,68.63
2019-03-16T09:07:52.886Z,67.21
2019-03-16T09:08:52.872Z,70.05
2019-03-16T09:09:52.611Z,74.03
2019-03-16T09:10:52.846Z,73.08
2019-03-16T09:11:52.825Z,70.81
2019-03-16T09:12:57.752Z,68.91
2019-03-16T09:13:52.796Z,66.93
2019-03-16T09:14:52.783Z,64.36
2019-03-16T09:15:52.763Z,62.85
2019-03-16T09:16:52.755Z,62.56
2019-03-16T09:17:52.735Z,62.56
2019-03-16T09:18:52.726Z,62.88
2019-03-16T09:19:52.774Z,62.94
2019-03-16T09:20:52.452Z,67.81
2019-03-16T09:21:52.674Z,68.57
2019-03-16T09:22:52.665Z,67.9
2019-03-16T09:23:52.650Z,71.6
2019-03-16T09:24:52.638Z,70.47
2019-03-16T09:25:52.620Z,69.8
2019-03-16T09:26:52.359Z,68.95
2019-03-16T09:27:52.588Z,68.57
2019-03-16T09:29:10.261Z,68.85
2019-03-16T09:29:52.559Z,68.57
2019-03-16T09:30:52.542Z,68.85
2019-03-16T09:31:52.527Z,70.84
2019-03-16T09:32:52.513Z,74.73
2019-03-16T09:33:52.502Z,74.92
2019-03-16T09:34:52.503Z,73.31
2019-03-16T09:35:52.470Z,70.65
2019-03-16T09:36:52.450Z,71.89
2019-03-16T09:37:52.440Z,71.89
2019-03-16T09:38:52.426Z,76.25
2019-03-16T09:39:52.410Z,77.86
2019-03-16T09:40:52.392Z,75.78
2019-03-16T09:41:52.380Z,75.59
2019-03-16T09:42:52.367Z,73.6
2019-03-16T09:43:52.350Z,70.75
2019-03-16T09:44:52.363Z,68.66
2019-03-16T09:45:52.334Z,67.14
2019-03-16T09:46:52.311Z,65.72
2019-03-16T09:47:52.293Z,67.52
2019-03-16T09:48:52.280Z,66.29
2019-03-16T09:49:52.265Z,64.4
2019-03-16T09:50:52.250Z,64.49
2019-03-16T09:51:52.243Z,67.05
2019-03-16T09:52:52.218Z,66.29
2019-03-16T09:53:52.205Z,66.86
2019-03-16T09:54:52.197Z,66.01
2019-03-16T09:55:51.927Z,66.48
2019-03-16T09:57:02.724Z,69.71
2019-03-16T09:57:52.141Z,68.76
2019-03-16T09:58:52.125Z,67.9
2019-03-16T09:59:52.110Z,67.05
2019-03-16T10:00:52.095Z,65.63
2019-03-16T10:01:52.079Z,64.68
2019-03-16T10:02:52.065Z,64.78
2019-03-16T10:03:52.067Z,63.17
2019-03-16T10:04:52.038Z,60.98
2019-03-16T10:05:52.020Z,58.8
2019-03-16T10:06:52.004Z,58.04
2019-03-16T10:07:51.994Z,56.34
2019-03-16T10:08:51.976Z,55
2019-03-16T10:09:51.969Z,56.24
2019-03-16T10:10:51.945Z,56.9
2019-03-16T10:11:52.477Z,56.43
2019-03-16T10:12:52.460Z,57.19
2019-03-16T10:13:52.455Z,57.19
2019-03-16T10:14:52.435Z,56.15
2019-03-16T10:15:52.417Z,54.66
2019-03-16T10:16:52.398Z,53.89
2019-03-16T10:17:52.387Z,55.04
2019-03-16T10:18:52.373Z,55.22
2019-03-16T10:19:52.448Z,54.08
2019-03-16T10:20:52.339Z,58.07
2019-03-16T10:21:52.332Z,58.83
2019-03-16T10:22:52.072Z,58.64
2019-03-16T10:23:52.300Z,67.18
2019-03-16T10:24:52.288Z,69.74
2019-03-16T10:25:52.031Z,69.65
2019-03-16T10:26:52.257Z,69.74
2019-03-16T10:27:52.243Z,69.27
2019-03-16T10:28:52.224Z,70.78
2019-03-16T10:29:52.221Z,70.98
2019-03-16T10:30:52.202Z,68.98
2019-03-16T10:31:52.186Z,68.79
2019-03-16T10:32:51.924Z,72.4
2019-03-16T10:33:51.911Z,72.3
2019-03-16T10:34:52.148Z,71.83
2019-03-16T10:35:52.127Z,75.15
2019-03-16T10:36:52.115Z,76.95
2019-03-16T10:37:52.101Z,75.24
2019-03-16T10:38:51.840Z,74.77
2019-03-16T10:39:52.070Z,71.36
2019-03-16T10:40:51.816Z,68.89
2019-03-16T10:41:52.043Z,65.75
2019-03-16T10:42:52.031Z,64.24
2019-03-16T10:43:52.014Z,63.95
2019-03-16T10:44:52.008Z,64.24
2019-03-16T10:45:51.988Z,64.33
2019-03-16T10:46:51.973Z,65.09
2019-03-16T10:47:51.956Z,67.18
2019-03-16T10:48:51.946Z,68.13
2019-03-16T10:49:51.929Z,67.18
2019-03-16T10:50:51.914Z,64.52
2019-03-16T10:51:51.904Z,64.33
2019-03-16T10:52:51.891Z,63.57
2019-03-16T10:53:51.874Z,60.73
2019-03-16T10:54:51.866Z,58.36
2019-03-16T10:55:51.846Z,57.5
2019-03-16T10:56:51.834Z,58.36
2019-03-16T10:57:51.571Z,58.36
2019-03-16T10:58:59.140Z,60.85
2019-03-16T10:59:51.791Z,63.7
2019-03-16T11:00:51.775Z,69.68
2019-03-16T11:01:51.767Z,68.83
2019-03-16T11:02:51.748Z,66.99
2019-03-16T11:03:51.732Z,64.08
2019-03-16T11:04:51.723Z,62.18
2019-03-16T11:05:51.712Z,61.61
2019-03-16T11:06:51.695Z,61.14
2019-03-16T11:07:51.687Z,59.91
2019-03-16T11:08:51.661Z,59.81
2019-03-16T11:09:51.653Z,59.71
2019-03-16T11:10:51.639Z,64.08
2019-03-16T11:11:51.629Z,62.08
2019-03-16T11:12:51.614Z,60.57
2019-03-16T11:13:51.600Z,59.91
2019-03-16T11:14:51.582Z,61.71
2019-03-16T11:15:51.570Z,67.31
2019-03-16T11:16:51.556Z,67.21
2019-03-16T11:17:51.543Z,64.84
2019-03-16T11:18:51.549Z,65.98
2019-03-16T11:19:51.515Z,66.3
2019-03-16T11:20:51.502Z,66.87
2019-03-16T11:21:53.214Z,65.6
2019-03-16T11:22:51.474Z,67.82
2019-03-16T11:23:51.458Z,67.91
2019-03-16T11:24:51.446Z,69.43
2019-03-16T11:25:51.431Z,70.95
2019-03-16T11:26:51.416Z,69.62
2019-03-16T11:27:51.408Z,75.04
2019-03-16T11:28:51.412Z,74.18
2019-03-16T11:29:51.387Z,70.48
2019-03-16T11:30:51.363Z,69.91
2019-03-16T11:31:51.359Z,71.33
2019-03-16T11:32:51.338Z,69.91
2019-03-16T11:33:51.083Z,73.9
2019-03-16T11:34:51.315Z,74.85
2019-03-16T11:35:51.300Z,73.52
2019-03-16T11:36:51.042Z,69.91
2019-03-16T11:37:51.277Z,71.52
2019-03-16T11:38:51.016Z,71.33
2019-03-16T11:39:51.249Z,77.22
2019-03-16T11:40:51.239Z,77.73
2019-03-16T11:41:51.224Z,78.3
2019-03-16T11:42:51.213Z,81.25
2019-03-16T11:43:51.198Z,79.25
2019-03-16T11:44:51.184Z,79.92
2019-03-16T11:45:51.173Z,84.67
2019-03-16T11:46:51.158Z,85.62
2019-03-16T11:47:51.150Z,84.58
2019-03-16T11:48:51.144Z,82.2
2019-03-16T11:49:51.279Z,79.16
2019-03-16T11:50:51.391Z,83.25
2019-03-16T11:51:51.096Z,83.06
2019-03-16T11:52:51.086Z,85.86
2019-03-16T11:53:51.070Z,90.14
2019-03-16T11:54:50.813Z,89.94
2019-03-16T11:55:51.047Z,87.57
2019-03-16T11:56:51.034Z,89.75
2019-03-16T11:57:51.024Z,89.66
2019-03-16T11:58:51.010Z,88.33
2019-03-16T11:59:51.001Z,92.13
2019-03-16T12:00:50.990Z,93.27
2019-03-16T12:01:50.974Z,95.17
2019-03-16T12:02:52.822Z,94.22
2019-03-16T12:03:50.948Z,93.94
2019-03-16T12:04:50.936Z,93.46
2019-03-16T12:05:50.927Z,93.27
2019-03-16T12:06:50.911Z,89.94
2019-03-16T12:07:50.899Z,91.66
2019-03-16T12:08:50.900Z,86.71
2019-03-16T12:09:50.878Z,83
2019-03-16T12:10:50.867Z,86.24
2019-03-16T12:11:50.855Z,89
2019-03-16T12:12:50.843Z,89.28
2019-03-16T12:13:50.832Z,91.08
2019-03-16T12:14:50.820Z,96.22
2019-03-16T12:15:50.807Z,92.99
2019-03-16T12:16:50.794Z,90.33
2019-03-16T12:17:50.779Z,90.23
2019-03-16T12:18:50.768Z,88.8
2019-03-16T12:19:50.760Z,89.09
2019-03-16T12:20:50.775Z,90.99
2019-03-16T12:21:50.811Z,91.56
2019-03-16T12:22:50.724Z,90.99
2019-03-16T12:23:50.724Z,89.09
2019-03-16T12:24:50.802Z,88.42
2019-03-16T12:25:50.440Z,86.71
2019-03-16T12:26:50.679Z,83.48
2019-03-16T12:27:50.687Z,81.67
2019-03-16T12:28:50.651Z,80.72
2019-03-16T12:29:50.645Z,81.1
2019-03-16T12:30:50.635Z,80.82
2019-03-16T12:31:50.618Z,78.69
2019-03-16T12:32:50.364Z,76.88
2019-03-16T12:33:50.594Z,73.55
2019-03-16T12:34:50.581Z,72.51
2019-03-16T12:35:50.568Z,71.18
2019-03-16T12:36:50.557Z,70.51
2019-03-16T12:37:50.545Z,67.85
2019-03-16T12:38:50.540Z,65.86
2019-03-16T12:39:50.523Z,65
2019-03-16T12:40:50.508Z,63.86
2019-03-16T12:41:50.509Z,61.29
2019-03-16T12:42:50.490Z,61.2
2019-03-16T12:43:50.470Z,60.91
2019-03-16T12:44:50.458Z,58.44
2019-03-16T12:45:50.444Z,57.68
2019-03-16T12:46:50.438Z,60.63
2019-03-16T12:47:50.426Z,61.2
2019-03-16T12:48:50.437Z,60.16
2019-03-16T12:49:50.406Z,59.2
2019-03-16T12:50:50.386Z,59.58
2019-03-16T12:51:50.396Z,61.01
2019-03-16T12:52:50.374Z,60.91
2019-03-16T12:53:50.350Z,57.87
2019-03-16T12:54:50.337Z,57.68